Time;durP1;ratioP1;P1;durP2;ratioP2;P2;SDS_P1;SDS_P2;PMS_P1;PMS_P2;Temp;Humidity;BMP_temperature;BMP_pressure;BME280_temperature;BME280_humidity;BME280_pressure;Samples;Min_cycle;Max_cycle;Signal;HPM_P1;HPM_P2
2021/05/11 00:00:31;;;;;;;8.18;5.07;;;;;;;;;;5088424;28;20123;-47
2021/05/11 00:02:57;;;;;;;11.60;5.45;;;;;;;;;;5088765;28;20027;-47
2021/05/11 00:05:27;;;;;;;10.32;5.50;;;;;;;;;;5099198;28;20051;-47
2021/05/11 00:07:53;;;;;;;9.35;5.10;;;;;;;;;;5089698;28;20081;-48
2021/05/11 00:10:19;;;;;;;11.95;5.72;;;;;;;;;;5089817;28;20036;-47
2021/05/11 00:12:46;;;;;;;11.80;5.50;;;;;;;;;;5084004;28;20040;-46
2021/05/11 00:15:12;;;;;;;10.15;5.30;;;;;;;;;;5070845;28;20032;-47
2021/05/11 00:17:40;;;;;;;11.40;5.70;;;;;;;;;;5071079;28;20020;-47
2021/05/11 00:20:06;;;;;;;10.43;5.28;;;;;;;;;;5071227;28;20378;-47
2021/05/11 00:22:32;;;;;;;8.60;5.10;;;;;;;;;;5076329;28;20048;-46
2021/05/11 00:24:58;;;;;;;10.63;5.50;;;;;;;;;;5111772;28;20109;-47
2021/05/11 00:27:24;;;;;;;9.10;5.22;;;;;;;;;;5111775;28;20541;-47
2021/05/11 00:29:50;;;;;;;8.57;5.13;;;;;;;;;;5111286;28;20024;-47
2021/05/11 00:32:16;;;;;;;10.85;5.20;;;;;;;;;;5098425;28;20024;-46
2021/05/11 00:34:42;;;;;;;8.55;5.07;;;;;;;;;;5090881;28;20024;-47
2021/05/11 00:37:09;;;;;;;8.98;5.38;;;;;;;;;;5090558;28;20035;-46
2021/05/11 00:39:35;;;;;;;8.73;5.00;;;;;;;;;;5073849;28;20021;-48
2021/05/11 00:42:01;;;;;;;9.68;4.80;;;;;;;;;;5070972;28;20029;-47
2021/05/11 00:44:27;;;;;;;9.85;5.40;;;;;;;;;;5070864;28;20146;-47
2021/05/11 00:46:56;;;;;;;8.45;4.93;;;;;;;;;;5070545;28;20077;-47
2021/05/11 00:49:22;;;;;;;9.05;4.60;;;;;;;;;;5070698;28;20028;-47
2021/05/11 00:51:49;;;;;;;9.10;5.00;;;;;;;;;;5070394;28;20040;-47
2021/05/11 00:54:15;;;;;;;7.10;4.68;;;;;;;;;;5069221;28;20024;-47
2021/05/11 00:56:41;;;;;;;10.45;5.00;;;;;;;;;;5071260;28;20025;-46
2021/05/11 00:59:14;;;;;;;8.82;5.07;;;;;;;;;;5069482;28;20032;-47
2021/05/11 01:01:40;;;;;;;9.80;4.70;;;;;;;;;;5070652;28;20052;-48
2021/05/11 01:04:06;;;;;;;7.93;4.35;;;;;;;;;;5070842;28;20025;-47
2021/05/11 01:06:32;;;;;;;7.30;4.50;;;;;;;;;;5070731;28;20450;-47
2021/05/11 01:08:58;;;;;;;7.03;4.43;;;;;;;;;;5073809;28;20029;-47
2021/05/11 01:11:25;;;;;;;7.95;4.60;;;;;;;;;;5074584;28;20052;-46
2021/05/11 01:13:51;;;;;;;7.82;4.45;;;;;;;;;;5073401;28;20028;-50
2021/05/11 01:16:17;;;;;;;8.10;4.43;;;;;;;;;;5074310;28;20024;-46
2021/05/11 01:18:44;;;;;;;6.95;3.97;;;;;;;;;;5074995;28;20025;-47
2021/05/11 01:21:26;;;;;;;7.78;4.15;;;;;;;;;;5074275;28;20036;-48
2021/05/11 01:26:30;;;;;;;6.68;4.15;;;;;;;;;;5115378;27;20027;-48
2021/05/11 01:31:52;;;;;;;6.68;4.40;;;;;;;;;;5115073;28;20035;-47
2021/05/11 01:50:38;;;;;;;7.03;4.43;;;;;;;;;;5094123;28;20032;-46
2021/05/11 01:58:44;;;;;;;6.78;4.25;;;;;;;;;;5094394;28;20039;-47
2021/05/11 02:18:06;;;;;;;7.35;4.35;;;;;;;;;;5092271;28;20595;-47
2021/05/11 02:23:17;;;;;;;6.65;4.35;;;;;;;;;;5093203;28;20047;-48
2021/05/11 02:25:43;;;;;;;8.50;4.25;;;;;;;;;;5092001;28;20024;-48
2021/05/11 02:28:09;;;;;;;7.47;3.83;;;;;;;;;;5091263;28;20027;-47
2021/05/11 02:30:36;;;;;;;6.43;3.95;;;;;;;;;;5090513;28;20036;-47
2021/05/11 02:33:02;;;;;;;5.65;3.70;;;;;;;;;;5078435;28;20059;-47
2021/05/11 02:35:28;;;;;;;5.00;3.90;;;;;;;;;;5072751;28;20038;-46
2021/05/11 02:37:55;;;;;;;6.07;3.80;;;;;;;;;;5087724;28;20458;-46
2021/05/11 02:40:21;;;;;;;8.25;3.80;;;;;;;;;;5076763;28;20017;-47
2021/05/11 02:42:50;;;;;;;6.22;3.83;;;;;;;;;;5072963;28;20040;-48
2021/05/11 02:45:16;;;;;;;5.88;3.85;;;;;;;;;;5073161;28;20099;-48
2021/05/11 02:47:49;;;;;;;6.60;3.60;;;;;;;;;;5072888;28;20060;-46
2021/05/11 02:50:18;;;;;;;5.90;4.05;;;;;;;;;;5072448;28;20051;-48
2021/05/11 02:52:45;;;;;;;7.47;4.20;;;;;;;;;;5073079;28;20857;-47
2021/05/11 02:55:11;;;;;;;8.40;4.35;;;;;;;;;;5072901;28;20077;-47
2021/05/11 02:57:37;;;;;;;9.57;4.40;;;;;;;;;;5072608;28;20160;-46
2021/05/11 03:00:06;;;;;;;7.38;4.40;;;;;;;;;;5072563;28;20692;-46
2021/05/11 03:02:32;;;;;;;10.55;4.45;;;;;;;;;;5072537;28;20102;-47
2021/05/11 03:04:58;;;;;;;10.10;4.82;;;;;;;;;;5073214;28;20024;-46
2021/05/11 03:07:25;;;;;;;10.95;4.65;;;;;;;;;;5072182;28;20071;-47
2021/05/11 03:09:51;;;;;;;7.18;4.60;;;;;;;;;;5072318;28;20038;-46
2021/05/11 03:12:17;;;;;;;8.50;4.50;;;;;;;;;;5072124;28;20036;-47
2021/05/11 03:14:43;;;;;;;7.35;4.60;;;;;;;;;;5071852;28;20029;-47
2021/05/11 03:17:09;;;;;;;8.45;4.32;;;;;;;;;;5072445;28;20533;-47
2021/05/11 03:19:35;;;;;;;7.32;4.00;;;;;;;;;;5072417;28;20381;-47
2021/05/11 03:22:01;;;;;;;7.43;4.22;;;;;;;;;;5071801;28;20501;-47
2021/05/11 03:24:28;;;;;;;9.77;4.25;;;;;;;;;;5111207;28;20027;-46
2021/05/11 03:26:54;;;;;;;9.07;4.57;;;;;;;;;;5112622;28;20019;-47
2021/05/11 03:29:20;;;;;;;7.45;4.30;;;;;;;;;;5112347;28;20057;-48
2021/05/11 03:31:46;;;;;;;9.15;4.10;;;;;;;;;;5111781;28;20030;-46
2021/05/11 03:34:12;;;;;;;9.07;4.55;;;;;;;;;;5112662;28;20068;-46
2021/05/11 03:36:38;;;;;;;8.77;4.45;;;;;;;;;;5106905;28;20465;-46
2021/05/11 03:39:06;;;;;;;9.55;4.43;;;;;;;;;;5092435;28;20044;-47
2021/05/11 03:41:41;;;;;;;;;;;;;;;;;;5092453;28;20048;-46
2021/05/11 03:44:13;;;;;;;9.70;4.40;;;;;;;;;;5091327;28;19904;-47
2021/05/11 03:46:40;;;;;;;9.30;4.72;;;;;;;;;;5092762;28;20083;-47
2021/05/11 03:49:06;;;;;;;9.52;4.70;;;;;;;;;;5091996;28;20427;-47
2021/05/11 03:51:33;;;;;;;9.90;5.20;;;;;;;;;;5091072;28;20050;-46
2021/05/11 03:54:02;;;;;;;13.40;4.72;;;;;;;;;;5091672;28;20031;-47
2021/05/11 03:56:28;;;;;;;12.10;4.57;;;;;;;;;;5092103;28;20108;-46
2021/05/11 03:58:54;;;;;;;9.85;4.70;;;;;;;;;;5091651;28;20020;-47
2021/05/11 04:01:20;;;;;;;9.30;4.65;;;;;;;;;;5091605;28;20553;-47
2021/05/11 04:03:46;;;;;;;8.48;4.22;;;;;;;;;;5091941;28;20031;-47
2021/05/11 04:06:12;;;;;;;8.90;4.80;;;;;;;;;;5091423;28;20031;-46
2021/05/11 04:08:46;;;;;;;7.80;4.47;;;;;;;;;;5091673;28;20105;-47
2021/05/11 04:18:45;;;;;;;11.35;4.68;;;;;;;;;;5091915;28;20028;-47
2021/05/11 04:21:11;;;;;;;12.85;5.00;;;;;;;;;;5090746;28;20020;-46
2021/05/11 04:23:37;;;;;;;9.18;4.65;;;;;;;;;;5104267;28;20060;-46
2021/05/11 04:26:03;;;;;;;8.75;4.97;;;;;;;;;;5111841;28;20023;-48
2021/05/11 04:28:29;;;;;;;12.60;5.13;;;;;;;;;;5110963;28;20019;-47
2021/05/11 04:30:55;;;;;;;13.00;4.85;;;;;;;;;;5111717;28;20454;-47
2021/05/11 04:33:21;;;;;;;9.02;4.80;;;;;;;;;;5089229;28;20028;-47
2021/05/11 04:35:47;;;;;;;9.85;4.90;;;;;;;;;;5085923;28;20036;-47
2021/05/11 04:38:13;;;;;;;10.23;5.47;;;;;;;;;;5088102;28;20026;-50
2021/05/11 04:40:39;;;;;;;14.43;5.32;;;;;;;;;;5078748;28;20538;-47
2021/05/11 04:43:06;;;;;;;8.77;4.88;;;;;;;;;;5088064;28;20503;-46
2021/05/11 04:45:34;;;;;;;10.98;4.60;;;;;;;;;;5089558;28;20070;-47
2021/05/11 04:48:00;;;;;;;10.60;4.93;;;;;;;;;;5087562;28;20028;-47
2021/05/11 04:50:29;;;;;;;9.25;5.20;;;;;;;;;;5078014;28;20037;-46
2021/05/11 04:52:59;;;;;;;9.55;5.03;;;;;;;;;;5070633;28;20409;-47
2021/05/11 04:55:25;;;;;;;12.18;5.60;;;;;;;;;;5070776;28;20029;-46
2021/05/11 04:57:51;;;;;;;10.10;5.32;;;;;;;;;;5070409;28;20025;-46
2021/05/11 05:00:18;;;;;;;15.43;5.47;;;;;;;;;;5070724;28;20025;-46
2021/05/11 05:02:48;;;;;;;9.63;5.25;;;;;;;;;;5070801;28;20032;-47
2021/05/11 05:05:14;;;;;;;14.48;5.35;;;;;;;;;;5070575;28;20094;-47
2021/05/11 05:07:40;;;;;;;16.70;5.93;;;;;;;;;;5071185;28;20044;-47
2021/05/11 05:10:07;;;;;;;14.05;6.22;;;;;;;;;;5084754;28;20021;-46
2021/05/11 05:12:33;;;;;;;13.65;5.03;;;;;;;;;;5090125;28;20046;-47
2021/05/11 05:14:59;;;;;;;15.13;5.30;;;;;;;;;;5091083;28;20024;-47
2021/05/11 05:17:25;;;;;;;13.73;5.20;;;;;;;;;;5090798;28;20027;-47
2021/05/11 05:19:51;;;;;;;10.25;4.95;;;;;;;;;;5090251;28;20046;-47
2021/05/11 05:22:18;;;;;;;11.82;5.40;;;;;;;;;;5085899;28;20074;-46
2021/05/11 05:24:51;;;;;;;11.68;4.88;;;;;;;;;;5086312;28;20144;-46
2021/05/11 05:27:23;;;;;;;16.40;5.25;;;;;;;;;;5088979;28;20032;-47
2021/05/11 05:29:49;;;;;;;14.50;5.35;;;;;;;;;;5087925;28;20059;-46
2021/05/11 05:32:15;;;;;;;13.32;4.85;;;;;;;;;;5089088;28;20044;-46
2021/05/11 05:34:41;;;;;;;17.73;5.40;;;;;;;;;;5088351;28;20060;-47
2021/05/11 05:37:07;;;;;;;10.60;5.22;;;;;;;;;;5085033;28;20142;-46
2021/05/11 05:39:38;;;;;;;12.93;5.82;;;;;;;;;;5070612;28;20020;-46
2021/05/11 05:42:04;;;;;;;14.32;5.43;;;;;;;;;;5069865;28;20390;-46
2021/05/11 05:44:31;;;;;;;11.23;5.60;;;;;;;;;;5088660;28;20055;-46
2021/05/11 05:46:57;;;;;;;16.80;5.90;;;;;;;;;;5090636;28;20032;-46
2021/05/11 05:49:25;;;;;;;12.18;5.80;;;;;;;;;;5089880;28;20031;-46
2021/05/11 05:51:52;;;;;;;11.20;5.70;;;;;;;;;;5089972;28;20070;-46
2021/05/11 05:54:18;;;;;;;13.52;5.53;;;;;;;;;;5090330;28;20587;-46
2021/05/11 05:56:44;;;;;;;12.70;5.30;;;;;;;;;;5093838;28;20374;-46
2021/05/11 05:59:10;;;;;;;14.30;5.57;;;;;;;;;;5094283;28;20031;-47
2021/05/11 06:01:36;;;;;;;13.45;5.20;;;;;;;;;;5093959;28;20024;-46
2021/05/11 06:04:07;;;;;;;11.68;5.43;;;;;;;;;;5093395;28;20032;-47
2021/05/11 06:06:33;;;;;;;14.05;5.30;;;;;;;;;;5085801;28;20031;-48
2021/05/11 06:09:00;;;;;;;14.05;5.55;;;;;;;;;;5084484;28;20110;-48
2021/05/11 06:14:46;;;;;;;14.07;5.90;;;;;;;;;;5067591;28;20044;-48
2021/05/11 06:17:19;;;;;;;11.85;5.30;;;;;;;;;;5082968;28;20056;-48
2021/05/11 06:19:45;;;;;;;11.43;5.10;;;;;;;;;;5088123;28;20486;-48
2021/05/11 06:22:11;;;;;;;13.73;5.15;;;;;;;;;;5087537;28;20067;-48
2021/05/11 06:24:37;;;;;;;16.75;5.63;;;;;;;;;;5075113;28;20461;-48
2021/05/11 06:27:04;;;;;;;13.38;4.97;;;;;;;;;;5087517;28;20035;-47
2021/05/11 06:29:33;;;;;;;12.20;4.72;;;;;;;;;;5087867;28;20068;-48
2021/05/11 06:32:00;;;;;;;8.07;4.80;;;;;;;;;;5087434;28;20089;-47
2021/05/11 06:34:26;;;;;;;11.15;4.57;;;;;;;;;;5081288;28;21026;-48
2021/05/11 06:36:52;;;;;;;13.65;4.90;;;;;;;;;;5085381;28;20470;-47
2021/05/11 06:39:18;;;;;;;15.60;5.30;;;;;;;;;;5078630;28;20093;-47
2021/05/11 06:41:48;;;;;;;11.00;4.57;;;;;;;;;;5079009;28;20058;-48
2021/05/11 06:55:01;;;;;;;11.35;4.30;;;;;;;;;;5089014;28;20090;-49
2021/05/11 06:57:30;;;;;;;11.00;4.55;;;;;;;;;;5080245;28;20173;-47
2021/05/11 06:59:56;;;;;;;10.80;4.43;;;;;;;;;;5077213;28;20034;-49
2021/05/11 07:02:22;;;;;;;6.88;4.55;;;;;;;;;;5085709;28;20035;-61
2021/05/11 07:04:53;;;;;;;9.20;4.55;;;;;;;;;;5075909;28;20112;-61
2021/05/11 07:07:21;;;;;;;10.90;4.72;;;;;;;;;;5082216;28;20036;-60
2021/05/11 07:14:59;;;;;;;9.60;5.03;;;;;;;;;;5080570;28;20085;-60
2021/05/11 07:17:25;;;;;;;11.18;5.43;;;;;;;;;;5079360;28;20129;-60
2021/05/11 07:19:52;;;;;;;10.70;5.35;;;;;;;;;;5073997;28;20801;-60
2021/05/11 07:22:18;;;;;;;9.77;5.30;;;;;;;;;;5077697;28;20024;-60
2021/05/11 07:24:47;;;;;;;8.60;4.90;;;;;;;;;;5082679;28;20039;-60
2021/05/11 07:27:32;;;;;;;7.82;4.88;;;;;;;;;;5087456;28;20032;-60
2021/05/11 07:30:12;;;;;;;8.80;4.80;;;;;;;;;;5080573;28;20113;-61
2021/05/11 07:32:39;;;;;;;8.55;5.00;;;;;;;;;;5076668;28;20028;-61
2021/05/11 07:35:06;;;;;;;13.30;5.95;;;;;;;;;;5077993;28;20032;-61
2021/05/11 07:37:32;;;;;;;10.68;4.95;;;;;;;;;;5080358;28;20028;-61
2021/05/11 07:39:58;;;;;;;10.60;5.53;;;;;;;;;;5073013;28;20024;-61
2021/05/11 07:42:24;;;;;;;12.18;5.43;;;;;;;;;;5085438;28;20093;-60
2021/05/11 07:44:53;;;;;;;9.85;4.88;;;;;;;;;;5081408;28;20020;-60
2021/05/11 07:50:39;;;;;;;11.80;5.47;;;;;;;;;;5052230;28;20406;-61
2021/05/11 08:04:52;;;;;;;14.10;5.15;;;;;;;;;;5077797;28;20453;-61
2021/05/11 08:15:16;;;;;;;10.00;5.03;;;;;;;;;;5085924;28;20038;-61
2021/05/11 08:17:44;;;;;;;10.77;4.88;;;;;;;;;;5074524;28;20040;-61
2021/05/11 08:27:58;;;;;;;8.63;3.92;;;;;;;;;;5083111;28;20092;-60
2021/05/11 08:30:24;;;;;;;10.30;4.30;;;;;;;;;;5083580;28;20171;-61
2021/05/11 08:32:50;;;;;;;13.82;4.70;;;;;;;;;;5083809;28;20047;-61
2021/05/11 08:35:16;;;;;;;10.75;4.40;;;;;;;;;;5075022;28;20069;-61
2021/05/11 08:37:42;;;;;;;11.25;4.18;;;;;;;;;;5086136;28;21215;-60
2021/05/11 08:40:09;;;;;;;15.57;4.75;;;;;;;;;;5080781;28;20489;-60
2021/05/11 08:42:35;;;;;;;9.75;4.20;;;;;;;;;;5075776;28;20089;-60
2021/05/11 08:45:04;;;;;;;6.80;3.53;;;;;;;;;;5081536;28;20028;-61
2021/05/11 08:47:31;;;;;;;7.45;3.67;;;;;;;;;;5083737;28;20035;-61
2021/05/11 08:49:59;;;;;;;8.75;3.60;;;;;;;;;;5075428;28;20029;-52
2021/05/11 08:52:52;;;;;;;9.38;3.80;;;;;;;;;;5082310;28;20039;-47
2021/05/11 09:06:33;;;;;;;10.05;3.38;;;;;;;;;;5077699;28;20394;-49
2021/05/11 09:09:18;;;;;;;12.70;3.75;;;;;;;;;;5076675;28;20086;-48
2021/05/11 09:25:34;;;;;;;8.27;3.65;;;;;;;;;;5078921;28;20030;-49
2021/05/11 09:28:20;;;;;;;13.75;4.25;;;;;;;;;;5068346;28;20261;-47
2021/05/11 09:33:31;;;;;;;10.60;3.75;;;;;;;;;;5081790;28;22528;-48
2021/05/11 10:48:07;;;;;;;9.23;3.85;;;;;;;;;;5074735;28;20070;-51
2021/05/11 10:50:48;;;;;;;8.60;3.80;;;;;;;;;;5070543;28;20429;-48
2021/05/11 10:53:33;;;;;;;9.25;4.22;;;;;;;;;;5085332;28;20040;-49
2021/05/11 10:56:17;;;;;;;14.23;4.13;;;;;;;;;;5089387;28;20040;-50
2021/05/11 10:59:02;;;;;;;13.10;3.80;;;;;;;;;;5089126;28;20036;-50
2021/05/11 11:01:32;;;;;;;15.45;4.00;;;;;;;;;;5087509;28;20074;-48
2021/05/11 11:04:14;;;;;;;9.88;3.60;;;;;;;;;;5085499;28;20027;-49
2021/05/11 11:07:01;;;;;;;8.57;3.38;;;;;;;;;;5077415;28;20024;-49
2021/05/11 11:09:30;;;;;;;8.95;3.92;;;;;;;;;;5081328;28;20028;-48
2021/05/11 11:11:57;;;;;;;9.05;3.30;;;;;;;;;;5087767;28;20496;-48
2021/05/11 11:14:23;;;;;;;8.20;3.20;;;;;;;;;;5074546;28;20012;-49
2021/05/11 11:16:49;;;;;;;9.23;3.70;;;;;;;;;;5081795;28;20023;-50
2021/05/11 11:19:17;;;;;;;7.40;3.50;;;;;;;;;;5093996;28;20028;-49
2021/05/11 11:24:25;;;;;;;8.50;3.65;;;;;;;;;;5093131;28;20520;-50
2021/05/11 11:26:52;;;;;;;6.20;3.15;;;;;;;;;;5098549;28;20036;-48
2021/05/11 11:29:20;;;;;;;5.78;3.35;;;;;;;;;;5092881;28;20028;-48
2021/05/11 11:31:46;;;;;;;5.80;3.40;;;;;;;;;;5092693;28;20035;-49
2021/05/11 11:34:21;;;;;;;9.57;3.30;;;;;;;;;;5101553;28;20050;-48
2021/05/11 11:36:55;;;;;;;8.60;3.40;;;;;;;;;;5082618;28;20098;-50
2021/05/11 11:39:22;;;;;;;12.52;3.75;;;;;;;;;;5086214;28;20028;-48
2021/05/11 11:41:49;;;;;;;9.40;4.05;;;;;;;;;;5088371;28;20432;-48
2021/05/11 11:44:15;;;;;;;9.32;4.03;;;;;;;;;;5085477;28;20465;-51
2021/05/11 11:46:42;;;;;;;8.88;3.80;;;;;;;;;;5070722;28;20037;-50
2021/05/11 11:49:11;;;;;;;11.70;3.72;;;;;;;;;;5089743;28;20034;-49
2021/05/11 11:51:37;;;;;;;7.97;3.63;;;;;;;;;;5088303;28;20048;-51
2021/05/11 11:54:11;;;;;;;8.57;3.45;;;;;;;;;;5089418;28;20028;-52
2021/05/11 11:59:22;;;;;;;5.60;3.60;;;;;;;;;;5091815;28;20031;-49
2021/05/11 12:01:57;;;;;;;8.18;3.70;;;;;;;;;;5091425;28;20028;-49
2021/05/11 12:04:24;;;;;;;10.20;4.10;;;;;;;;;;5079858;28;20031;-50
2021/05/11 12:06:51;;;;;;;11.30;4.25;;;;;;;;;;5080944;28;20485;-49
2021/05/11 12:09:17;;;;;;;5.53;3.40;;;;;;;;;;5083202;28;20059;-50
2021/05/11 12:11:44;;;;;;;9.38;3.70;;;;;;;;;;5083482;28;20082;-51
2021/05/11 12:14:10;;;;;;;7.18;3.25;;;;;;;;;;5083677;28;20532;-49
2021/05/11 12:16:42;;;;;;;12.43;3.60;;;;;;;;;;5088100;28;20024;-49
2021/05/11 12:19:11;;;;;;;7.22;3.20;;;;;;;;;;5085126;28;20024;-47
2021/05/11 12:21:51;;;;;;;6.97;3.45;;;;;;;;;;5086205;28;20029;-49
2021/05/11 12:24:17;;;;;;;6.28;3.40;;;;;;;;;;5087030;28;20032;-48
2021/05/11 12:26:44;;;;;;;7.53;3.47;;;;;;;;;;5089096;28;20035;-48
2021/05/11 12:29:19;;;;;;;5.72;3.33;;;;;;;;;;5089221;28;20066;-50
2021/05/11 12:31:47;;;;;;;9.02;3.47;;;;;;;;;;5084607;28;20078;-48
2021/05/11 12:34:16;;;;;;;9.63;3.25;;;;;;;;;;5087270;28;20024;-48
2021/05/11 12:36:49;;;;;;;7.35;3.65;;;;;;;;;;5078459;28;20039;-61
2021/05/11 12:42:12;;;;;;;8.27;3.53;;;;;;;;;;5077415;28;20271;-61
2021/05/11 12:44:38;;;;;;;11.38;3.40;;;;;;;;;;5074340;28;20463;-60
2021/05/11 12:47:05;;;;;;;4.82;3.30;;;;;;;;;;5068415;28;20493;-61
2021/05/11 12:49:31;;;;;;;7.07;3.53;;;;;;;;;;5076186;28;20077;-60
2021/05/11 12:51:58;;;;;;;22.73;4.10;;;;;;;;;;5073071;28;20078;-60
2021/05/11 12:54:41;;;;;;;14.77;3.60;;;;;;;;;;5077719;28;20049;-60
2021/05/11 12:57:23;;;;;;;9.18;3.95;;;;;;;;;;5082811;28;20109;-60
2021/05/11 13:00:05;;;;;;;12.50;3.70;;;;;;;;;;5075445;28;20155;-60
2021/05/11 13:16:23;;;;;;;;;;;;;;;;;;5079094;28;20039;-61
2021/05/11 13:34:54;;;;;;;9.98;3.33;;;;;;;;;;5082381;28;20530;-48
2021/05/11 13:37:26;;;;;;;7.95;3.40;;;;;;;;;;5073447;28;20454;-49
2021/05/11 13:39:52;;;;;;;8.43;3.15;;;;;;;;;;5079042;28;20028;-49
2021/05/11 13:42:18;;;;;;;8.02;3.22;;;;;;;;;;5076780;28;20753;-50
2021/05/11 13:44:44;;;;;;;12.48;3.40;;;;;;;;;;5072341;28;20102;-48
2021/05/11 13:47:10;;;;;;;7.15;3.05;;;;;;;;;;5069636;28;20029;-60
2021/05/11 13:49:36;;;;;;;6.30;3.10;;;;;;;;;;5080427;28;20099;-60
2021/05/11 13:52:02;;;;;;;6.65;3.20;;;;;;;;;;5079604;28;20098;-43
2021/05/11 13:54:29;;;;;;;11.45;3.47;;;;;;;;;;5076830;28;20024;-62
2021/05/11 14:03:06;;;;;;;5.93;3.20;;;;;;;;;;5077514;28;20051;-47
2021/05/11 14:05:13;;;;;;;8.25;3.20;;;;;;;;;;5072659;28;20067;-48
2021/05/11 14:07:39;;;;;;;7.47;3.33;;;;;;;;;;5087701;28;20035;-58
2021/05/11 14:10:05;;;;;;;10.40;3.22;;;;;;;;;;5083966;28;20428;-47
2021/05/11 14:12:31;;;;;;;7.72;2.90;;;;;;;;;;5077728;28;20386;-47
2021/05/11 14:14:57;;;;;;;5.97;3.42;;;;;;;;;;5067043;28;20154;-48
2021/05/11 14:17:24;;;;;;;8.98;3.13;;;;;;;;;;5086758;28;20119;-48
2021/05/11 14:19:51;;;;;;;6.72;3.13;;;;;;;;;;5078831;28;20016;-47
2021/05/11 14:22:19;;;;;;;7.80;3.25;;;;;;;;;;5077222;28;20043;-47
2021/05/11 14:24:46;;;;;;;8.05;2.90;;;;;;;;;;5095925;28;20391;-47
2021/05/11 14:27:12;;;;;;;7.63;3.15;;;;;;;;;;5089826;28;20016;-47
2021/05/11 14:29:38;;;;;;;9.23;3.20;;;;;;;;;;5092580;28;20077;-46
2021/05/11 14:32:04;;;;;;;8.45;3.28;;;;;;;;;;5080962;28;20040;-47
2021/05/11 14:34:30;;;;;;;5.57;3.05;;;;;;;;;;5085168;28;20021;-47
2021/05/11 14:36:56;;;;;;;5.70;3.40;;;;;;;;;;5091662;28;20032;-47
2021/05/11 14:39:22;;;;;;;7.03;2.80;;;;;;;;;;5079138;28;20482;-49
2021/05/11 14:41:53;;;;;;;4.68;2.85;;;;;;;;;;5090453;28;20031;-47
2021/05/11 14:44:20;;;;;;;5.90;2.80;;;;;;;;;;5079109;28;20059;-48
2021/05/11 14:46:46;;;;;;;7.10;3.00;;;;;;;;;;5083681;28;20171;-47
2021/05/11 14:49:12;;;;;;;6.95;2.78;;;;;;;;;;5081580;28;20078;-48
2021/05/11 14:51:38;;;;;;;4.70;3.00;;;;;;;;;;5079824;28;20042;-48
2021/05/11 14:54:04;;;;;;;6.28;3.30;;;;;;;;;;5081650;28;20036;-47
2021/05/11 14:56:30;;;;;;;4.60;2.88;;;;;;;;;;5073743;28;20028;-47
2021/05/11 14:58:56;;;;;;;4.82;2.92;;;;;;;;;;5079867;28;20074;-48
2021/05/11 15:01:22;;;;;;;5.20;2.92;;;;;;;;;;5075373;28;20384;-61
2021/05/11 15:03:48;;;;;;;5.50;3.10;;;;;;;;;;5074221;28;20455;-61
2021/05/11 15:06:14;;;;;;;9.05;3.10;;;;;;;;;;5074863;28;20024;-61
2021/05/11 15:08:41;;;;;;;4.72;2.60;;;;;;;;;;5092042;28;20101;-60
2021/05/11 15:11:07;;;;;;;4.72;2.83;;;;;;;;;;5092460;28;20194;-60
2021/05/11 15:13:34;;;;;;;6.90;2.90;;;;;;;;;;5084896;28;20024;-60
2021/05/11 15:16:06;;;;;;;8.55;3.00;;;;;;;;;;5071963;28;20372;-60
2021/05/11 15:18:32;;;;;;;7.95;2.78;;;;;;;;;;5090538;28;20062;-60
2021/05/11 15:20:58;;;;;;;5.97;3.05;;;;;;;;;;5093333;28;20032;-60
2021/05/11 15:23:24;;;;;;;8.13;2.90;;;;;;;;;;5103337;28;20035;-60
2021/05/11 15:25:50;;;;;;;5.57;2.70;;;;;;;;;;5113636;28;20110;-60
2021/05/11 15:28:16;;;;;;;5.00;3.00;;;;;;;;;;5113122;28;20023;-60
2021/05/11 15:30:43;;;;;;;5.45;2.80;;;;;;;;;;5110898;28;20032;-60
2021/05/11 15:33:11;;;;;;;5.90;2.90;;;;;;;;;;5087364;28;20067;-60
2021/05/11 15:35:37;;;;;;;4.57;2.72;;;;;;;;;;5092175;28;20085;-60
2021/05/11 15:38:04;;;;;;;5.18;2.72;;;;;;;;;;5082373;28;20370;-60
2021/05/11 15:40:35;;;;;;;3.83;2.60;;;;;;;;;;5084606;28;20032;-60
2021/05/11 15:43:01;;;;;;;5.85;3.10;;;;;;;;;;5092627;28;20028;-60
2021/05/11 15:45:27;;;;;;;6.80;2.83;;;;;;;;;;5091770;28;20049;-60
2021/05/11 15:47:53;;;;;;;5.00;2.80;;;;;;;;;;5092570;28;20393;-61
2021/05/11 15:50:25;;;;;;;7.80;3.33;;;;;;;;;;5092523;28;20514;-60
2021/05/11 15:52:52;;;;;;;6.05;2.95;;;;;;;;;;5091859;28;20123;-60
2021/05/11 15:55:18;;;;;;;4.15;2.80;;;;;;;;;;5081311;28;20028;-61
2021/05/11 15:57:44;;;;;;;8.32;2.90;;;;;;;;;;5071709;28;20152;-61
2021/05/11 16:00:11;;;;;;;4.78;2.80;;;;;;;;;;5071263;28;20017;-61
2021/05/11 16:02:37;;;;;;;6.15;3.00;;;;;;;;;;5070432;28;20056;-61
2021/05/11 16:05:06;;;;;;;5.63;3.10;;;;;;;;;;5070933;28;20040;-60
2021/05/11 16:07:32;;;;;;;4.80;3.00;;;;;;;;;;5071330;28;20036;-60
2021/05/11 16:09:58;;;;;;;6.32;3.20;;;;;;;;;;5075160;28;20412;-60
2021/05/11 16:12:24;;;;;;;4.25;2.88;;;;;;;;;;5091513;28;20435;-61
2021/05/11 16:14:51;;;;;;;7.40;3.08;;;;;;;;;;5082976;28;20024;-60
2021/05/11 16:17:17;;;;;;;5.38;3.08;;;;;;;;;;5071490;28;20016;-60
2021/05/11 16:19:43;;;;;;;3.75;3.25;;;;;;;;;;5071357;28;20028;-60
2021/05/11 16:22:09;;;;;;;3.65;2.97;;;;;;;;;;5072587;28;20504;-60
2021/05/11 16:24:35;;;;;;;4.93;2.92;;;;;;;;;;5111845;28;20066;-60
2021/05/11 16:27:01;;;;;;;5.72;3.40;;;;;;;;;;5112094;28;20064;-60
2021/05/11 16:29:27;;;;;;;6.85;3.15;;;;;;;;;;5112164;28;20027;-60
2021/05/11 16:31:53;;;;;;;5.97;3.05;;;;;;;;;;5072556;28;20035;-60
2021/05/11 16:34:20;;;;;;;6.57;3.03;;;;;;;;;;5071036;28;20035;-60
2021/05/11 16:36:46;;;;;;;3.28;2.90;;;;;;;;;;5071672;28;20021;-60
2021/05/11 16:39:12;;;;;;;4.20;3.20;;;;;;;;;;5070312;28;20475;-60
2021/05/11 16:41:38;;;;;;;4.55;3.03;;;;;;;;;;5071369;28;20463;-60
2021/05/11 16:44:06;;;;;;;6.28;3.20;;;;;;;;;;5071285;28;20525;-60
2021/05/11 16:46:33;;;;;;;5.00;3.30;;;;;;;;;;5068227;28;20071;-60
2021/05/11 16:48:59;;;;;;;6.10;3.80;;;;;;;;;;5071237;28;20032;-60
2021/05/11 16:51:25;;;;;;;3.65;3.20;;;;;;;;;;5071390;28;20548;-60
2021/05/11 16:53:53;;;;;;;5.75;3.03;;;;;;;;;;5070523;28;20478;-60
2021/05/11 16:56:19;;;;;;;5.88;3.45;;;;;;;;;;5070967;28;20086;-60
2021/05/11 16:58:45;;;;;;;4.72;3.28;;;;;;;;;;5071226;28;20059;-60
2021/05/11 17:01:11;;;;;;;5.78;3.40;;;;;;;;;;5070778;28;20104;-60
2021/05/11 17:03:37;;;;;;;4.15;3.13;;;;;;;;;;5069123;28;20090;-60
2021/05/11 17:06:04;;;;;;;3.88;3.10;;;;;;;;;;5071239;28;20029;-60
2021/05/11 17:08:30;;;;;;;9.88;3.72;;;;;;;;;;5071186;28;20028;-61
2021/05/11 17:10:56;;;;;;;4.15;3.17;;;;;;;;;;5071336;28;20028;-60
2021/05/11 17:13:22;;;;;;;3.40;3.00;;;;;;;;;;5071130;28;20025;-60
2021/05/11 17:15:52;;;;;;;3.53;3.10;;;;;;;;;;5070589;28;20047;-60
2021/05/11 17:18:18;;;;;;;4.22;3.40;;;;;;;;;;5071186;28;20071;-60
2021/05/11 17:20:44;;;;;;;4.00;3.10;;;;;;;;;;5083097;28;20032;-60
2021/05/11 17:23:10;;;;;;;5.13;3.30;;;;;;;;;;5100156;28;20028;-60
2021/05/11 17:25:36;;;;;;;7.25;3.53;;;;;;;;;;5087599;28;20074;-61
2021/05/11 17:28:03;;;;;;;5.57;3.30;;;;;;;;;;5070786;28;20107;-60
2021/05/11 17:30:29;;;;;;;6.68;3.30;;;;;;;;;;5070244;28;20131;-60
2021/05/11 17:32:55;;;;;;;5.32;3.08;;;;;;;;;;5070727;28;20037;-59
2021/05/11 17:35:22;;;;;;;8.45;3.50;;;;;;;;;;5070847;28;20359;-60
2021/05/11 17:37:48;;;;;;;3.35;2.97;;;;;;;;;;5070392;28;20092;-61
2021/05/11 17:40:15;;;;;;;5.95;3.08;;;;;;;;;;5069490;28;20032;-60
2021/05/11 17:42:41;;;;;;;6.70;3.30;;;;;;;;;;5069532;28;20033;-61
2021/05/11 17:45:08;;;;;;;5.00;3.38;;;;;;;;;;5070274;28;20055;-60
2021/05/11 17:47:34;;;;;;;4.15;3.10;;;;;;;;;;5084747;28;20042;-59
2021/05/11 17:50:00;;;;;;;5.53;3.30;;;;;;;;;;5090790;28;20351;-60
2021/05/11 17:52:26;;;;;;;3.42;3.10;;;;;;;;;;5093924;28;20040;-60
2021/05/11 17:54:52;;;;;;;5.35;3.15;;;;;;;;;;5095028;28;20069;-60
2021/05/11 17:57:18;;;;;;;5.03;3.33;;;;;;;;;;5094732;28;20020;-60
2021/05/11 17:59:45;;;;;;;5.13;3.22;;;;;;;;;;5094041;28;20024;-60
2021/05/11 18:02:12;;;;;;;6.45;3.17;;;;;;;;;;5093332;28;20507;-60
2021/05/11 18:04:38;;;;;;;5.28;3.05;;;;;;;;;;5094632;28;20028;-60
2021/05/11 18:07:04;;;;;;;3.60;3.00;;;;;;;;;;5089341;28;20047;-61
2021/05/11 18:09:30;;;;;;;9.23;3.45;;;;;;;;;;5073253;28;20020;-60
2021/05/11 18:11:56;;;;;;;5.53;3.70;;;;;;;;;;5074145;28;20035;-60
2021/05/11 18:14:22;;;;;;;7.57;3.45;;;;;;;;;;5072694;28;20103;-60
2021/05/11 18:16:49;;;;;;;5.82;3.40;;;;;;;;;;5074134;28;20405;-60
2021/05/11 18:19:15;;;;;;;5.28;3.30;;;;;;;;;;5073841;28;20091;-60
2021/05/11 18:21:41;;;;;;;10.65;3.60;;;;;;;;;;5073362;28;20028;-60
2021/05/11 18:24:08;;;;;;;7.43;3.60;;;;;;;;;;5105597;28;20023;-60
2021/05/11 18:26:34;;;;;;;5.00;3.50;;;;;;;;;;5114661;28;20031;-60
2021/05/11 18:29:00;;;;;;;3.78;3.30;;;;;;;;;;5114130;28;20110;-60
2021/05/11 18:31:26;;;;;;;7.18;3.75;;;;;;;;;;5114473;28;20098;-60
2021/05/11 18:33:52;;;;;;;9.27;3.85;;;;;;;;;;5114143;28;20051;-60
2021/05/11 18:37:09;;;;;;;5.95;3.78;;;;;;;;;;5112906;28;20097;-60
2021/05/11 18:39:12;;;;;;;8.38;3.55;;;;;;;;;;5110232;28;20035;-60
2021/05/11 18:41:38;;;;;;;5.32;3.40;;;;;;;;;;5115019;28;20034;-60
2021/05/11 18:44:05;;;;;;;9.32;3.70;;;;;;;;;;5113640;28;20040;-60
2021/05/11 18:46:31;;;;;;;8.98;4.10;;;;;;;;;;5108957;27;20020;-60
2021/05/11 18:48:57;;;;;;;6.63;3.72;;;;;;;;;;5093737;28;20031;-60
2021/05/11 18:51:23;;;;;;;7.13;3.80;;;;;;;;;;5085946;28;20063;-60